createdAt,value
2023-04-18T00:02:20.458Z,101099.00
2023-04-18T00:04:47.253Z,101098.41
2023-04-18T00:07:17.596Z,101100.34
2023-04-18T00:09:44.664Z,101097.78
2023-04-18T00:12:11.623Z,101099.00
2023-04-18T00:14:38.348Z,101096.31
2023-04-18T00:17:08.662Z,101092.69
2023-04-18T00:19:37.345Z,101087.88
2023-04-18T00:22:04.026Z,101088.78
2023-04-18T00:24:31.443Z,101087.38
2023-04-18T00:26:58.319Z,101082.97
2023-04-18T00:29:25.255Z,101080.28
2023-04-18T00:31:53.436Z,101083.03
2023-04-18T00:34:20.036Z,101079.47
2023-04-18T00:36:46.722Z,101076.09
2023-04-18T00:39:13.462Z,101086.34
2023-04-18T00:41:40.203Z,101081.78
2023-04-18T00:44:07.002Z,101079.47
2023-04-18T00:46:33.884Z,101083.06
2023-04-18T00:49:00.749Z,101078.13
2023-04-18T00:51:27.931Z,101082.53
2023-04-18T00:53:54.757Z,101078.41
2023-04-18T00:56:23.679Z,101082.03
2023-04-18T00:58:51.127Z,101074.19
2023-04-18T01:01:18.283Z,101079.09
2023-04-18T01:03:45.188Z,101069.31
2023-04-18T01:06:15.112Z,101073.41
2023-04-18T01:08:42.729Z,101074.59
2023-04-18T01:11:09.395Z,101067.53
2023-04-18T01:13:35.997Z,101067.81
2023-04-18T01:16:03.914Z,101064.53
2023-04-18T01:18:31.544Z,101070.19
2023-04-18T01:21:00.511Z,101066.09
2023-04-18T01:23:27.223Z,101067.50
2023-04-18T01:25:53.873Z,101061.84
2023-04-18T01:28:23.746Z,101060.94
2023-04-18T01:30:50.516Z,101061.53
2023-04-18T01:33:17.461Z,101057.16
2023-04-18T01:35:47.503Z,101058.16
2023-04-18T01:38:14.197Z,101053.63
2023-04-18T01:40:40.853Z,101049.72
2023-04-18T01:43:07.503Z,101047.19
2023-04-18T01:45:37.004Z,101047.69
2023-04-18T01:48:03.841Z,101045.06
2023-04-18T01:50:30.608Z,101041.19
2023-04-18T01:52:57.269Z,101043.28
2023-04-18T01:55:23.924Z,101042.09
2023-04-18T01:57:50.993Z,101037.34
2023-04-18T02:00:19.741Z,101043.50
2023-04-18T02:02:46.555Z,101038.34
2023-04-18T02:05:13.489Z,101042.56
2023-04-18T02:07:41.026Z,101045.38
2023-04-18T02:10:10.418Z,101044.44
2023-04-18T02:12:39.315Z,101046.00
2023-04-18T02:15:07.356Z,101046.31
2023-04-18T02:17:37.862Z,101043.44
2023-04-18T02:20:05.017Z,101045.00
2023-04-18T02:22:33.045Z,101043.06
2023-04-18T02:25:02.334Z,101044.66
2023-04-18T02:27:33.931Z,101039.63
2023-04-18T02:30:02.532Z,101040.16
2023-04-18T02:32:32.156Z,101045.59
2023-04-18T02:34:58.842Z,101047.91
2023-04-18T02:37:25.587Z,101045.91
2023-04-18T02:39:52.269Z,101043.72
2023-04-18T02:42:19.722Z,101053.25
2023-04-18T02:44:46.511Z,101050.78
2023-04-18T02:47:13.234Z,101050.78
2023-04-18T02:49:42.412Z,101051.34
2023-04-18T02:52:09.089Z,101052.50
2023-04-18T02:54:35.904Z,101051.66
2023-04-18T02:57:10.076Z,101049.59
2023-04-18T02:59:42.562Z,101042.25
2023-04-18T03:02:32.486Z,101043.94
2023-04-18T03:05:07.735Z,101044.94
2023-04-18T03:07:35.971Z,101045.31
2023-04-18T03:10:03.864Z,101045.00
2023-04-18T03:12:34.110Z,101046.03
2023-04-18T03:15:01.666Z,101039.63
2023-04-18T03:17:32.977Z,101041.81
2023-04-18T03:20:00.301Z,101043.38
2023-04-18T03:22:27.005Z,101042.78
2023-04-18T03:24:56.301Z,101041.19
2023-04-18T03:27:35.437Z,101041.41
2023-04-18T03:30:02.742Z,101040.13
2023-04-18T03:32:33.932Z,101039.22
2023-04-18T03:35:01.271Z,101036.78
2023-04-18T03:37:31.564Z,101043.31
2023-04-18T03:39:59.746Z,101037.84
2023-04-18T03:42:29.769Z,101040.06
2023-04-18T03:44:56.892Z,101038.44
2023-04-18T03:47:23.766Z,101034.47
2023-04-18T03:49:55.581Z,101036.22
2023-04-18T03:52:24.382Z,101035.66
2023-04-18T03:54:51.065Z,101036.34
2023-04-18T03:57:20.783Z,101042.31
2023-04-18T03:59:47.997Z,101037.22
2023-04-18T04:02:14.914Z,101034.50
2023-04-18T04:04:42.422Z,101040.69
2023-04-18T04:07:10.840Z,101040.72
2023-04-18T04:09:37.927Z,101032.69
2023-04-18T04:12:06.306Z,101037.66
2023-04-18T04:14:33.785Z,101038.34
2023-04-18T04:17:00.585Z,101041.84
2023-04-18T04:19:29.474Z,101044.16
2023-04-18T04:22:09.831Z,101043.56
2023-04-18T04:24:38.640Z,101047.94
2023-04-18T04:27:08.034Z,101047.88
2023-04-18T04:29:38.578Z,101038.50
2023-04-18T04:32:06.495Z,101035.53
2023-04-18T04:34:37.041Z,101051.88
2023-04-18T04:37:06.079Z,101050.03
2023-04-18T04:39:39.306Z,101048.75
2023-04-18T04:42:35.788Z,101050.41
2023-04-18T04:45:10.367Z,101052.44
2023-04-18T04:47:37.368Z,101057.34
2023-04-18T04:50:06.254Z,101063.75
2023-04-18T04:52:33.962Z,101059.66
2023-04-18T04:55:00.984Z,101055.72
2023-04-18T04:57:31.541Z,101065.25
2023-04-18T04:59:58.170Z,101065.56
2023-04-18T05:02:25.151Z,101064.09
2023-04-18T05:04:51.874Z,101067.81
2023-04-18T05:07:18.550Z,101076.00
2023-04-18T05:09:45.179Z,101077.44
2023-04-18T05:12:11.876Z,101073.34
2023-04-18T05:14:38.562Z,101083.56
2023-04-18T05:17:05.404Z,101093.09
2023-04-18T05:19:32.010Z,101093.44
2023-04-18T05:21:58.683Z,101092.47
2023-04-18T05:24:25.377Z,101103.84
2023-04-18T05:26:52.620Z,101105.09
2023-04-18T05:29:19.417Z,101109.59
2023-04-18T05:31:46.009Z,101110.81
2023-04-18T05:34:12.835Z,101116.38
2023-04-18T05:36:39.752Z,101102.97
2023-04-18T05:39:06.539Z,101110.97
2023-04-18T05:41:33.180Z,101114.72
2023-04-18T05:44:05.347Z,101109.53
2023-04-18T05:46:43.866Z,101112.22
2023-04-18T05:49:10.767Z,101104.66
2023-04-18T05:51:37.770Z,101109.16
2023-04-18T05:54:04.564Z,101116.66
2023-04-18T05:56:31.293Z,101120.53
2023-04-18T05:58:57.931Z,101110.84
2023-04-18T06:01:24.622Z,101120.97
2023-04-18T06:03:51.556Z,101111.44
2023-04-18T06:06:18.409Z,101114.31
2023-04-18T06:08:45.084Z,101123.75
2023-04-18T06:11:11.817Z,101120.84
2023-04-18T06:13:38.488Z,101124.00
2023-04-18T06:16:05.433Z,101125.81
2023-04-18T06:18:32.685Z,101136.38
2023-04-18T06:20:59.459Z,101129.16
2023-04-18T06:23:26.119Z,101127.91
2023-04-18T06:25:52.756Z,101137.44
2023-04-18T06:28:19.362Z,101130.59
2023-04-18T06:30:46.074Z,101143.47
2023-04-18T06:33:12.997Z,101133.28
2023-04-18T06:35:40.220Z,101137.72
2023-04-18T06:38:06.968Z,101136.31
2023-04-18T06:40:33.668Z,101141.75
2023-04-18T06:43:00.461Z,101139.28
2023-04-18T06:45:30.318Z,101145.34
2023-04-18T06:47:59.513Z,101134.91
2023-04-18T06:50:26.813Z,101142.22
2023-04-18T06:52:53.438Z,101147.72
2023-04-18T06:55:20.363Z,101148.47
2023-04-18T06:57:47.801Z,101143.03
2023-04-18T07:00:15.156Z,101140.06
2023-04-18T07:02:42.177Z,101138.56
2023-04-18T07:05:09.131Z,101146.25
2023-04-18T07:07:35.808Z,101140.94
2023-04-18T07:10:02.495Z,101145.50
2023-04-18T07:12:31.442Z,101142.94
2023-04-18T07:14:58.146Z,101152.56
2023-04-18T07:17:24.809Z,101146.25
2023-04-18T07:19:51.536Z,101144.50
2023-04-18T07:22:18.164Z,101148.25
2023-04-18T07:24:44.774Z,101145.19
2023-04-18T07:27:11.672Z,101145.84
2023-04-18T07:29:38.455Z,101143.16
2023-04-18T07:32:06.883Z,101141.59
2023-04-18T07:34:36.078Z,101144.59
2023-04-18T07:37:03.029Z,101142.50
2023-04-18T07:39:31.965Z,101132.72
2023-04-18T07:41:58.843Z,101146.22
2023-04-18T07:44:25.524Z,101138.09
2023-04-18T07:46:52.429Z,101141.34
2023-04-18T07:49:19.099Z,101140.41
2023-04-18T07:51:45.784Z,101139.81
2023-04-18T07:54:12.413Z,101148.56
2023-04-18T07:56:39.159Z,101146.59
2023-04-18T07:59:05.807Z,101143.84
2023-04-18T08:01:32.635Z,101146.84
2023-04-18T08:04:01.615Z,101152.97
2023-04-18T08:06:29.172Z,101153.44
2023-04-18T08:08:55.889Z,101154.09
2023-04-18T08:11:22.599Z,101153.78
2023-04-18T08:13:49.287Z,101156.31
2023-04-18T08:16:17.478Z,101149.78
2023-04-18T08:18:44.384Z,101155.50
2023-04-18T08:21:11.246Z,101158.91
2023-04-18T08:23:37.987Z,101166.19
2023-04-18T08:26:04.668Z,101159.88
2023-04-18T08:28:31.267Z,101163.91
2023-04-18T08:30:58.033Z,101158.31
2023-04-18T08:33:24.847Z,101159.03
2023-04-18T08:35:51.796Z,101165.75
2023-04-18T08:38:19.185Z,101165.22
2023-04-18T08:40:45.977Z,101169.31
2023-04-18T08:43:14.824Z,101171.53
2023-04-18T08:45:42.761Z,101165.44
2023-04-18T08:48:17.571Z,101166.31
2023-04-18T08:50:44.955Z,101170.56
2023-04-18T08:53:11.972Z,101166.59
2023-04-18T08:55:38.772Z,101174.25
2023-04-18T08:58:06.838Z,101171.50
2023-04-18T09:00:34.084Z,101174.03
2023-04-18T09:03:03.808Z,101167.44
2023-04-18T09:05:31.238Z,101174.53
2023-04-18T09:07:58.088Z,101168.16
2023-04-18T09:10:29.781Z,101171.31
2023-04-18T09:12:58.198Z,101161.31
2023-04-18T09:15:29.313Z,101170.22
2023-04-18T09:18:02.654Z,101171.63
2023-04-18T09:20:35.612Z,101173.94
2023-04-18T09:23:11.204Z,101180.06
2023-04-18T09:25:49.410Z,101170.09
2023-04-18T09:28:25.132Z,101166.63
2023-04-18T09:30:52.543Z,101175.50
2023-04-18T09:33:29.561Z,101173.94
2023-04-18T09:35:57.168Z,101172.25
2023-04-18T09:38:40.813Z,101175.56
2023-04-18T09:41:09.220Z,101172.34
2023-04-18T09:43:36.063Z,101169.72
2023-04-18T09:46:04.423Z,101168.50
2023-04-18T09:48:31.403Z,101170.94
2023-04-18T09:51:01.345Z,101164.44
2023-04-18T09:53:28.414Z,101160.06
2023-04-18T09:55:57.692Z,101166.28
2023-04-18T09:58:27.544Z,101161.84
2023-04-18T10:00:55.637Z,101165.47
2023-04-18T10:03:28.665Z,101158.78
2023-04-18T10:05:57.761Z,101165.16
2023-04-18T10:08:26.139Z,101164.34
2023-04-18T10:10:55.790Z,101149.69
2023-04-18T10:13:23.846Z,101158.31
2023-04-18T10:15:52.352Z,101153.50
2023-04-18T10:18:23.229Z,101154.38
2023-04-18T10:20:50.199Z,101150.28
2023-04-18T10:23:35.638Z,101162.25
2023-04-18T10:26:04.873Z,101147.16
2023-04-18T10:29:10.246Z,101143.13
2023-04-18T10:31:39.040Z,101145.63
2023-04-18T10:34:07.007Z,101149.84
2023-04-18T10:36:34.021Z,101148.56
2023-04-18T10:39:22.369Z,101141.16
2023-04-18T10:41:51.117Z,101143.34
2023-04-18T10:44:19.771Z,101136.66
2023-04-18T10:46:52.534Z,101135.31
2023-04-18T10:49:28.320Z,101125.19
2023-04-18T10:51:58.698Z,101131.47
2023-04-18T10:54:46.353Z,101124.38
2023-04-18T10:57:13.812Z,101128.69
2023-04-18T10:59:47.999Z,101119.59
2023-04-18T11:02:29.980Z,101113.00
2023-04-18T11:04:58.579Z,101109.75
2023-04-18T11:07:38.122Z,101097.91
2023-04-18T11:10:07.449Z,101090.75
2023-04-18T11:12:36.825Z,101092.25
2023-04-18T11:15:10.676Z,101091.50
2023-04-18T11:17:40.007Z,101090.97
2023-04-18T11:20:14.932Z,101086.97
2023-04-18T11:22:59.335Z,101090.88
2023-04-18T11:25:36.323Z,101093.56
2023-04-18T11:28:04.519Z,101080.53
2023-04-18T11:30:41.563Z,101091.41
2023-04-18T11:33:12.769Z,101090.72
2023-04-18T11:35:41.110Z,101091.41
2023-04-18T11:38:10.297Z,101088.19
2023-04-18T11:40:37.454Z,101084.53
2023-04-18T11:43:06.209Z,101082.78
2023-04-18T11:45:33.427Z,101077.31
2023-04-18T11:48:00.776Z,101086.78
2023-04-18T11:50:27.699Z,101088.97
2023-04-18T11:52:55.322Z,101080.09
2023-04-18T11:55:24.788Z,101093.16
2023-04-18T11:57:56.870Z,101093.47
2023-04-18T12:00:35.803Z,101095.16
2023-04-18T12:03:05.251Z,101090.91
2023-04-18T12:05:36.305Z,101099.56
2023-04-18T12:08:11.787Z,101108.28
2023-04-18T12:10:46.788Z,101109.19
2023-04-18T12:13:13.552Z,101098.75
2023-04-18T12:15:43.520Z,101100.72
2023-04-18T12:18:12.350Z,101110.06
2023-04-18T12:20:45.894Z,101103.84
2023-04-18T12:23:29.704Z,101110.34
2023-04-18T12:26:06.104Z,101098.88
2023-04-18T12:28:34.595Z,101103.78
2023-04-18T12:31:02.645Z,101111.44
2023-04-18T12:33:30.671Z,101118.84
2023-04-18T12:35:57.391Z,101112.81
2023-04-18T12:38:24.149Z,101110.38
2023-04-18T12:40:52.055Z,101113.31
2023-04-18T12:43:19.571Z,101115.72
2023-04-18T12:45:46.860Z,101117.19
2023-04-18T12:48:13.933Z,101108.25
2023-04-18T12:50:40.867Z,101108.06
2023-04-18T12:53:07.814Z,101110.22
2023-04-18T12:55:34.567Z,101100.31
2023-04-18T12:58:01.358Z,101109.72
2023-04-18T13:00:31.095Z,101103.13
2023-04-18T13:02:58.987Z,101096.88
2023-04-18T13:05:31.653Z,101102.69
2023-04-18T13:08:15.153Z,101097.34
2023-04-18T13:10:43.632Z,101103.94
2023-04-18T13:13:10.405Z,101096.75
2023-04-18T13:15:37.119Z,101096.94
2023-04-18T13:18:06.335Z,101093.88
2023-04-18T13:20:34.156Z,101079.25
2023-04-18T13:23:04.711Z,101089.22
2023-04-18T13:25:31.677Z,101091.94
2023-04-18T13:27:58.899Z,101080.16
2023-04-18T13:30:25.856Z,101087.91
2023-04-18T13:32:52.700Z,101093.84
2023-04-18T13:35:19.584Z,101096.78
2023-04-18T13:37:46.424Z,101087.75
2023-04-18T13:40:13.554Z,101092.16
2023-04-18T13:42:40.375Z,101086.13
2023-04-18T13:45:07.527Z,101086.28
2023-04-18T13:47:35.125Z,101084.28
2023-04-18T13:50:02.041Z,101078.84
2023-04-18T13:52:30.961Z,101078.63
2023-04-18T13:54:57.635Z,101086.59
2023-04-18T13:57:24.266Z,101075.25
2023-04-18T13:59:51.024Z,101077.53
2023-04-18T14:02:17.807Z,101073.13
2023-04-18T14:04:44.846Z,101082.34
2023-04-18T14:07:11.573Z,101071.28
2023-04-18T14:09:38.235Z,101077.91
2023-04-18T14:12:05.144Z,101067.25
2023-04-18T14:14:31.797Z,101072.97
2023-04-18T14:16:58.501Z,101068.06
2023-04-18T14:19:25.242Z,101064.06
2023-04-18T14:21:52.069Z,101067.88
2023-04-18T14:24:18.840Z,101064.94
2023-04-18T14:26:45.673Z,101061.75
2023-04-18T14:29:14.172Z,101063.16
2023-04-18T14:31:41.292Z,101058.47
2023-04-18T14:34:09.482Z,101059.09
2023-04-18T14:36:36.112Z,101063.91
2023-04-18T14:39:03.504Z,101061.59
2023-04-18T14:41:30.368Z,101068.47
2023-04-18T14:43:57.219Z,101061.25
2023-04-18T14:46:24.193Z,101064.38
2023-04-18T14:48:50.957Z,101061.69
2023-04-18T14:51:17.652Z,101052.66
2023-04-18T14:53:44.844Z,101054.28
2023-04-18T14:56:11.713Z,101056.91
2023-04-18T14:58:38.530Z,101048.56
2023-04-18T15:01:05.708Z,101059.47
2023-04-18T15:03:33.157Z,101057.47
2023-04-18T15:06:00.517Z,101049.78
2023-04-18T15:08:30.322Z,101052.81
2023-04-18T15:10:58.773Z,101058.88
2023-04-18T15:13:25.547Z,101039.47
2023-04-18T15:15:53.561Z,101042.25
2023-04-18T15:18:20.653Z,101053.22
2023-04-18T15:20:47.538Z,101041.13
2023-04-18T15:23:14.682Z,101051.00
2023-04-18T15:25:42.621Z,101045.47
2023-04-18T15:28:09.456Z,101044.66
2023-04-18T15:30:36.442Z,101043.22
2023-04-18T15:33:03.396Z,101039.94
2023-04-18T15:35:30.182Z,101043.69
2023-04-18T15:37:57.415Z,101040.72
2023-04-18T15:40:24.420Z,101038.28
2023-04-18T15:42:53.491Z,101044.31
2023-04-18T15:45:21.304Z,101043.41
2023-04-18T15:47:48.156Z,101031.59
2023-04-18T15:50:16.118Z,101036.06
2023-04-18T15:52:43.284Z,101034.09
2023-04-18T15:55:12.281Z,101035.16
2023-04-18T15:57:39.933Z,101028.38
2023-04-18T16:00:17.293Z,101033.03
2023-04-18T16:02:45.140Z,101030.31
2023-04-18T16:05:13.086Z,101029.03
2023-04-18T16:07:40.544Z,101031.59
2023-04-18T16:10:10.042Z,101034.13
2023-04-18T16:12:37.977Z,101029.59
2023-04-18T16:15:09.521Z,101023.38
2023-04-18T16:17:37.453Z,101022.28
2023-04-18T16:20:06.215Z,101031.91
2023-04-18T16:22:33.482Z,101030.47
2023-04-18T16:25:01.943Z,101036.38
2023-04-18T16:27:30.609Z,101037.19
2023-04-18T16:29:57.329Z,101032.88
2023-04-18T16:32:24.033Z,101038.13
2023-04-18T16:34:50.916Z,101032.38
2023-04-18T16:37:17.768Z,101028.78
2023-04-18T16:39:44.615Z,101030.94
2023-04-18T16:42:13.357Z,101028.69
2023-04-18T16:44:41.579Z,101028.91
2023-04-18T16:47:08.456Z,101035.44
2023-04-18T16:49:35.629Z,101032.75
2023-04-18T16:52:02.345Z,101029.91
2023-04-18T16:54:29.455Z,101027.97
2023-04-18T16:56:56.942Z,101045.53
2023-04-18T16:59:23.827Z,101038.44
2023-04-18T17:01:50.546Z,101041.63
2023-04-18T17:04:17.585Z,101041.41
2023-04-18T17:06:44.597Z,101047.34
2023-04-18T17:09:13.585Z,101051.34
2023-04-18T17:11:41.143Z,101044.50
2023-04-18T17:14:08.602Z,101059.63
2023-04-18T17:16:40.028Z,101049.78
2023-04-18T17:19:09.076Z,101058.69
2023-04-18T17:21:36.654Z,101054.94
2023-04-18T17:24:05.745Z,101059.84
2023-04-18T17:26:34.071Z,101058.28
2023-04-18T17:29:04.324Z,101061.50
2023-04-18T17:31:31.743Z,101065.44
2023-04-18T17:33:59.406Z,101066.41
2023-04-18T17:36:27.175Z,101072.94
2023-04-18T17:38:54.005Z,101077.78
2023-04-18T17:41:21.844Z,101081.47
2023-04-18T17:43:50.806Z,101078.88
2023-04-18T17:46:17.705Z,101081.03
2023-04-18T17:48:44.559Z,101091.34
2023-04-18T17:51:11.407Z,101102.69
2023-04-18T17:53:38.439Z,101092.69
2023-04-18T17:56:05.310Z,101095.19
2023-04-18T17:58:31.925Z,101092.88
2023-04-18T18:00:58.835Z,101099.28
2023-04-18T18:03:25.692Z,101110.44
2023-04-18T18:05:54.927Z,101110.91
2023-04-18T18:08:22.652Z,101105.00
2023-04-18T18:10:49.683Z,101112.50
2023-04-18T18:13:16.490Z,101121.53
2023-04-18T18:15:43.269Z,101123.31
2023-04-18T18:18:10.463Z,101116.19
2023-04-18T18:20:37.171Z,101121.38
2023-04-18T18:23:03.848Z,101132.59
2023-04-18T18:25:32.209Z,101127.16
2023-04-18T18:27:58.896Z,101128.56
2023-04-18T18:30:25.672Z,101131.59
2023-04-18T18:32:53.310Z,101135.28
2023-04-18T18:35:20.083Z,101139.13
2023-04-18T18:37:46.734Z,101144.13
2023-04-18T18:40:13.574Z,101146.91
2023-04-18T18:42:40.534Z,101146.34
2023-04-18T18:45:07.998Z,101156.72
2023-04-18T18:47:35.809Z,101155.91
2023-04-18T18:50:04.496Z,101155.66
2023-04-18T18:52:34.249Z,101164.75
2023-04-18T18:55:01.306Z,101166.41
2023-04-18T18:57:28.180Z,101170.63
2023-04-18T18:59:55.918Z,101180.47
2023-04-18T19:02:23.153Z,101181.75
2023-04-18T19:04:50.217Z,101183.47
2023-04-18T19:07:17.002Z,101187.00
2023-04-18T19:09:43.731Z,101179.03
2023-04-18T19:12:10.503Z,101187.13
2023-04-18T19:14:37.385Z,101185.28
2023-04-18T19:17:04.873Z,101184.22
2023-04-18T19:19:31.642Z,101186.84
2023-04-18T19:21:58.522Z,101191.59
2023-04-18T19:24:25.288Z,101184.22
2023-04-18T19:26:52.176Z,101193.97
2023-04-18T19:29:18.979Z,101194.16
2023-04-18T19:31:45.747Z,101202.06
2023-04-18T19:34:13.385Z,101197.63
2023-04-18T19:36:40.288Z,101204.06
2023-04-18T19:39:08.034Z,101197.16
2023-04-18T19:41:34.704Z,101198.59
2023-04-18T19:44:01.376Z,101199.16
2023-04-18T19:46:28.139Z,101195.16
2023-04-18T19:48:54.789Z,101192.16
2023-04-18T19:51:21.746Z,101194.13
2023-04-18T19:53:48.606Z,101203.84
2023-04-18T19:56:15.350Z,101201.06
2023-04-18T19:58:46.497Z,101197.88
2023-04-18T20:01:14.577Z,101196.13
2023-04-18T20:03:41.843Z,101204.56
2023-04-18T20:06:09.207Z,101207.03
2023-04-18T20:08:37.963Z,101203.41
2023-04-18T20:11:07.908Z,101202.09
2023-04-18T20:13:36.674Z,101212.41
2023-04-18T20:16:04.933Z,101201.97
2023-04-18T20:18:32.116Z,101215.34
2023-04-18T20:20:58.928Z,101206.34
2023-04-18T20:23:25.869Z,101211.59
2023-04-18T20:25:52.678Z,101209.72
2023-04-18T20:28:19.472Z,101216.31
2023-04-18T20:30:46.293Z,101214.88
2023-04-18T20:33:13.062Z,101206.69
2023-04-18T20:35:40.536Z,101208.06
2023-04-18T20:38:11.107Z,101207.16
2023-04-18T20:40:39.042Z,101210.91
2023-04-18T20:43:07.881Z,101215.81
2023-04-18T20:45:37.363Z,101207.38
2023-04-18T20:48:04.777Z,101213.47
2023-04-18T20:50:31.571Z,101219.00
2023-04-18T20:53:00.306Z,101216.31
2023-04-18T20:55:27.504Z,101223.44
2023-04-18T20:57:54.479Z,101211.00
2023-04-18T21:00:21.801Z,101209.59
2023-04-18T21:02:48.897Z,101213.00
2023-04-18T21:05:15.748Z,101213.94
2023-04-18T21:07:44.025Z,101202.22
2023-04-18T21:10:12.137Z,101220.38
2023-04-18T21:12:38.941Z,101219.22
2023-04-18T21:15:06.334Z,101215.00
2023-04-18T21:17:33.115Z,101219.78
2023-04-18T21:20:00.178Z,101219.31
2023-04-18T21:22:26.904Z,101213.69
2023-04-18T21:24:53.604Z,101209.56
2023-04-18T21:27:20.473Z,101217.91
2023-04-18T21:29:47.859Z,101220.25
2023-04-18T21:32:14.591Z,101211.47
2023-04-18T21:34:41.602Z,101208.31
2023-04-18T21:37:08.453Z,101215.44
2023-04-18T21:39:35.090Z,101214.63
2023-04-18T21:42:01.957Z,101214.97
2023-04-18T21:44:28.782Z,101220.00
2023-04-18T21:46:56.358Z,101212.03
2023-04-18T21:49:23.087Z,101225.88
2023-04-18T21:51:50.151Z,101217.44
2023-04-18T21:54:16.989Z,101215.31
2023-04-18T21:56:43.766Z,101214.84
2023-04-18T21:59:10.537Z,101214.81
2023-04-18T22:01:38.275Z,101221.50
2023-04-18T22:04:05.886Z,101227.59
2023-04-18T22:06:33.389Z,101217.75
2023-04-18T22:09:01.139Z,101223.50
2023-04-18T22:11:28.573Z,101231.56
2023-04-18T22:13:57.988Z,101231.09
2023-04-18T22:16:24.849Z,101226.63
2023-04-18T22:18:51.893Z,101222.88
2023-04-18T22:21:18.703Z,101210.59
2023-04-18T22:23:45.640Z,101226.72
2023-04-18T22:26:12.396Z,101216.16
2023-04-18T22:28:39.058Z,101220.13
2023-04-18T22:31:06.102Z,101218.69
2023-04-18T22:33:32.907Z,101228.03
2023-04-18T22:35:59.636Z,101219.06
2023-04-18T22:38:26.480Z,101220.00
2023-04-18T22:40:53.207Z,101218.91
2023-04-18T22:43:22.897Z,101216.38
2023-04-18T22:45:50.367Z,101216.84
2023-04-18T22:48:17.203Z,101221.75
2023-04-18T22:50:43.938Z,101220.97
2023-04-18T22:53:11.292Z,101228.41
2023-04-18T22:55:42.759Z,101229.63
2023-04-18T22:58:10.579Z,101229.34
2023-04-18T23:00:37.681Z,101236.44
2023-04-18T23:03:04.776Z,101238.69
2023-04-18T23:05:31.716Z,101239.28
2023-04-18T23:08:00.371Z,101234.03
2023-04-18T23:10:27.850Z,101237.06
2023-04-18T23:12:54.519Z,101235.38
2023-04-18T23:15:22.827Z,101227.94
2023-04-18T23:17:53.157Z,101236.13
2023-04-18T23:20:20.849Z,101236.44
2023-04-18T23:22:50.126Z,101238.38
2023-04-18T23:25:17.566Z,101227.31
2023-04-18T23:27:44.280Z,101220.09
2023-04-18T23:30:11.571Z,101227.00
2023-04-18T23:32:38.266Z,101233.47
2023-04-18T23:35:06.194Z,101228.53
2023-04-18T23:37:33.480Z,101241.44
2023-04-18T23:40:00.365Z,101231.50
2023-04-18T23:42:27.287Z,101226.00
2023-04-18T23:44:54.477Z,101229.03
2023-04-18T23:47:21.771Z,101217.97
2023-04-18T23:49:48.492Z,101222.09
2023-04-18T23:52:15.361Z,101222.25
2023-04-18T23:54:42.108Z,101215.38
2023-04-18T23:57:08.788Z,101226.28
2023-04-18T23:59:35.418Z,101222.25
